Latest Coastal Weather Observations for Cape Otway

IDT60701

Issued at 6:31 am EST Wednesday 2 September 2015 (issued every 10 minutes, with the page automatically refreshed every 10 minutes)

About coastal observations | Map of coastal stations | Coastal observations for TAS | Marine services | Other Formats
Station Details ID: 090015 Name: CAPE OTWAY LIGHTHOUSE Lat: -38.86 Lon: 143.51 Height: 82.0 m
Data from the previous 72 hours. | See also: Recent months at Cape Otway
Date/Time
EST
Temp

°C
Wind Pressure Rain
since 9am
mm
Weather Cloud Vis
km
Sea
Height
m
Swell
Dir
 
Speed
knots
Gust
knots
hPa Trend Height
m
Period
s
Dir
02/06:30am 13.7 N 19 28 1009.5 - 0.0 - - - - - - -
02/06:00am 13.9 N 18 24 1009.7 - 0.0 - - - - - - -
02/05:30am 13.8 N 17 27 1009.6 - 0.0 - - - - - - -
02/05:29am 13.9 N 17 27 1009.5 - 0.0 - - - - - - -
02/05:00am 13.9 N 18 25 1009.6 - 0.0 - - - - - - -
02/04:30am 13.6 N 19 29 1009.6 - 0.0 - - - - - - -
02/04:00am 13.6 N 19 30 1009.7 - 0.0 - - - - - - -
02/03:56am 13.5 N 20 30 1009.8 - 0.0 - - - - - - -
02/03:30am 13.4 N 18 26 1009.8 - 0.0 - - - - - - -
02/03:15am 13.3 N 19 29 1009.9 - 0.0 - - - - - - -
02/03:00am 13.3 N 16 24 1010.2 - 0.0 - - - - - - -
02/02:59am 13.3 N 15 24 1010.1 - 0.0 - - - - - - -
02/02:30am 12.2 NNE 7 13 1011.0 - 0.0 - - - - - - -
02/02:00am 10.6 ESE 5 10 1011.4 - 0.0 - - - - - - -
02/01:30am 10.0 E 6 7 1011.6 - 0.0 - - - - - - -
02/01:00am 9.4 SE 5 6 1011.7 - 0.0 - - - - - - -
02/12:30am 9.3 E 6 8 1011.8 - 0.0 - - - - - - -
02/12:00am 9.2 ENE 8 11 1011.9 - 0.0 - - - - - - -
 
Date/Time
EST
Temp

°C
Wind Pressure Rain
since 9am
mm
Weather Cloud Vis
km
Sea
Height
m
Swell
Dir
 
Speed
knots
Gust
knots
hPa Trend Height
m
Period
s
Dir
01/11:30pm 9.0 NE 10 13 1012.0 - 0.0 - - - - - - -
01/11:00pm 9.0 ENE 10 13 1012.2 - 0.0 - - - - - - -
01/10:30pm 8.6 ENE 8 11 1012.6 - 0.0 - - - - - - -
01/10:00pm 8.7 E 6 8 1012.8 - 0.0 - - - - - - -
01/09:30pm 8.9 ENE 7 9 1012.8 - 0.0 - - - - - - -
01/09:00pm 9.2 ENE 7 11 1013.0 - 0.0 - - - - - - -
01/08:30pm 9.2 NE 12 17 1012.7 - 0.0 - - - - - - -
01/08:00pm 9.2 NE 11 15 1012.7 - 0.0 - - - - - - -
01/07:30pm 8.9 NE 11 15 1012.8 - 0.0 - - - - - - -
01/07:00pm 9.0 NE 11 14 1012.7 - 0.0 - - - - - - -
01/06:30pm 9.2 ENE 9 13 1012.7 - 0.0 - - - - - - -
01/06:00pm 9.4 ENE 10 13 1012.8 - 0.0 - - - - - - -
01/05:30pm 9.9 ENE 10 14 1012.5 - 0.0 - - - - - - -
01/05:00pm 10.2 ENE 11 16 1012.7 - 0.0 - - - - - - -
01/04:30pm 10.3 ENE 10 15 1012.8 - 0.0 - - - - - - -
01/04:00pm 10.5 E 8 13 1013.2 - 0.0 - - - - - - -
01/03:30pm 10.6 ENE 10 14 1013.5 - 0.0 - - - - - - -
01/03:00pm 10.7 E 9 13 1013.7 - 0.0 - - - - - - -
01/02:30pm 11.2 E 8 14 1013.8 - 0.0 - - - - - - -
01/02:00pm 10.8 E 10 16 1013.8 - 0.0 - - - - - - -
01/01:30pm 10.9 E 11 15 1014.1 - 0.0 - - - - - - -
01/01:00pm 10.7 ESE 12 15 1014.6 - 0.0 - - - - - - -
01/12:30pm 10.5 SE 7 10 1015.7 - 0.0 - - - - - - -
01/12:00pm 10.4 SE 5 9 1016.5 - 0.0 - - - - - - -
01/11:30am 10.2 SE 5 7 1016.9 - 0.0 - - - - - - -
01/11:00am 10.1 SE 4 7 1016.9 - 0.0 - - - - - - -
01/10:30am 10.5 SE 3 5 1017.2 - 0.0 - - - - - - -
01/10:00am 10.2 N 2 7 1017.2 - 0.0 - - - - - - -
01/09:30am 9.5 NNE 5 7 1017.2 - 0.0 - - - - - - -
01/09:00am 9.1 E 3 5 1017.3 - 0.0 - - - - - - -
01/08:30am 8.6 NE 4 6 1017.2 - 0.0 - - - - - - -
01/08:00am 7.3 NNE 5 6 1017.2 - 0.0 - - - - - - -
01/07:30am 4.9 N 7 8 1016.9 - 0.0 - - - - - - -
01/07:00am 3.7 N 8 8 1016.7 - 0.0 - - - - - - -
01/06:30am 4.2 N 7 9 1016.4 - 0.0 - - - - - - -
01/06:00am 4.8 N 7 8 1016.6 - 0.0 - - - - - - -
01/05:30am 5.9 N 5 7 1016.7 - 0.0 - - - - - - -
01/05:00am 6.8 N 6 8 1016.6 - 0.0 - - - - - - -
01/04:30am 7.0 N 7 8 1016.7 - 0.0 - - - - - - -
01/04:00am 7.0 N 6 8 1016.7 - 0.0 - - - - - - -
01/03:30am 7.0 N 6 8 1017.1 - 0.0 - - - - - - -
01/03:00am 7.1 N 7 9 1017.5 - 0.0 - - - - - - -
01/02:30am 7.1 N 7 8 1017.7 - 0.0 - - - - - - -
01/02:00am 7.2 N 7 9 1018.2 - 0.0 - - - - - - -
01/01:30am 7.3 N 7 9 1018.4 - 0.0 - - - - - - -
01/01:00am 7.3 N 6 9 1018.7 - 0.0 - - - - - - -
01/12:30am 7.3 N 7 9 1019.0 - 0.0 - - - - - - -
01/12:00am 7.5 N 6 8 1019.1 - 0.0 - - - - - - -
 
Date/Time
EST
Temp

°C
Wind Pressure Rain
since 9am
mm
Weather Cloud Vis
km
Sea
Height
m
Swell
Dir
 
Speed
knots
Gust
knots
hPa Trend Height
m
Period
s
Dir
31/11:30pm 7.5 N 6 9 1019.1 - 0.0 - - - - - - -
31/11:00pm 7.7 N 7 9 1019.2 - 0.0 - - - - - - -
31/10:30pm 7.9 N 6 8 1019.4 - 0.0 - - - - - - -
31/10:00pm 8.1 NNE 6 7 1019.6 - 0.0 - - - - - - -
31/09:30pm 8.2 NNW 2 4 1019.6 - 0.0 - - - - - - -
31/09:00pm 8.3 N 1 4 1019.8 - 0.0 - - - - - - -
31/08:30pm 8.5 NNW 3 5 1019.5 - 0.0 - - - - - - -
31/08:00pm 8.7 NW 4 6 1019.5 - 0.0 - - - - - - -
31/07:30pm 8.8 SW 3 5 1019.5 - 0.0 - - - - - - -
31/07:00pm 8.9 N 2 4 1019.2 - 0.0 - - - - - - -
31/06:30pm 9.0 SSW 5 9 1019.2 - 0.0 - - - - - - -
31/06:00pm 9.3 SW 7 10 1019.3 - 0.0 - - - - - - -
31/05:30pm 9.5 W 5 9 1019.3 - 0.0 - - - - - - -
31/05:00pm 9.8 W 4 9 1019.3 - 0.0 - - - - - - -
31/04:30pm 10.1 WSW 5 9 1019.5 - 0.0 - - - - - - -
31/04:00pm 10.3 SSW 5 7 1019.5 - 0.0 - - - - - - -
31/03:30pm 10.5 SW 9 11 1019.7 - 0.0 - - - - - - -
31/03:00pm 10.8 SW 7 9 1019.8 - 0.0 - - - - - - -
31/02:30pm 10.7 SW 6 9 1019.8 - 0.0 - - - - - - -
31/02:00pm 10.9 SW 7 9 1020.1 - 0.0 - - - - - - -
31/01:30pm 11.6 S 3 5 1020.3 - 0.0 - - - - - - -
31/01:00pm 12.3 SE 4 6 1020.5 - 0.0 - - - - - - -
31/12:30pm 11.2 SSE 3 5 1020.8 - 0.0 - - - - - - -
31/12:00pm 11.5 S 4 6 1021.3 - 0.0 - - - - - - -
31/11:30am 11.4 S 4 6 1021.4 - 0.0 - - - - - - -
31/11:00am 11.2 S 4 6 1021.6 - 0.0 - - - - - - -
31/10:30am 10.5 SE 4 7 1021.6 - 0.0 - - - - - - -
31/10:00am 10.3 S 4 6 1021.8 - 0.0 - - - - - - -
31/09:30am 9.8 S 1 5 1021.8 - 0.0 - - - - - - -
31/09:00am 9.5 SSW 3 5 1022.0 - 0.2 - - - - - - -
31/08:30am 9.2 SSW 3 7 1021.7 - 0.2 - - - - - - -
31/08:00am 8.0 SW 2 5 1021.5 - 0.2 - - - - - - -
31/07:30am 7.8 N 4 5 1021.4 - 0.2 - - - - - - -
31/07:00am 7.6 N 4 5 1021.2 - 0.2 - - - - - - -
31/06:30am 7.7 N 2 4 1021.1 - 0.2 - - - - - - -
31/06:00am 7.7 NNW 4 5 1021.2 - 0.2 - - - - - - -
31/05:30am 7.8 W 4 5 1021.2 - 0.2 - - - - - - -
31/05:00am 7.4 NNW 3 4 1021.1 - 0.2 - - - - - - -
31/04:30am 7.4 N 4 6 1021.1 - 0.2 - - - - - - -
31/04:00am 7.7 N 3 4 1021.2 - 0.2 - - - - - - -
31/03:30am 7.7 NW 4 5 1021.5 - 0.2 - - - - - - -
31/03:00am 7.9 WNW 4 6 1021.9 - 0.2 - - - - - - -
31/02:30am 7.5 NW 4 5 1022.0 - 0.2 - - - - - - -
31/02:00am 7.9 W 2 4 1022.3 - 0.2 - - - - - - -
31/01:30am 8.4 SSW 3 5 1022.5 - 0.0 - - - - - - -
31/01:00am 8.5 SSW 6 9 1022.7 - 0.0 - - - - - - -
31/12:30am 8.1 SSW 5 8 1022.9 - 0.0 - - - - - - -
31/12:00am 8.6 SW 7 11 1023.1 - 0.0 - - - - - - -
 
Date/Time
EST
Temp

°C
Wind Pressure Rain
since 9am
mm
Weather Cloud Vis
km
Sea
Height
m
Swell
Dir
 
Speed
knots
Gust
knots
hPa Trend Height
m
Period
s
Dir
30/11:30pm 9.4 SW 8 12 1023.1 - 0.0 - - - - - - -
30/11:00pm 9.2 SSW 6 11 1023.4 - 0.0 - - - - - - -
30/10:30pm 8.8 SW 8 12 1023.6 - 0.0 - - - - - - -
30/10:00pm 8.5 SSW 6 10 1024.2 - 0.0 - - - - - - -
30/09:30pm 8.8 SW 9 13 1024.1 - 0.0 - - - - - - -
30/09:00pm 8.9 SSW 12 15 1024.4 - 0.0 - - - - - - -
30/08:30pm 8.9 SSW 7 10 1024.3 - 0.0 - - - - - - -
30/08:00pm 9.1 SSW 11 15 1024.3 - 0.0 - - - - - - -
30/07:30pm 9.4 SSW 8 14 1024.1 - 0.0 - - - - - - -
30/07:00pm 9.3 SW 7 11 1024.2 - 0.0 - - - - - - -
30/06:30pm 9.6 SSW 8 12 1024.1 - 0.0 - - - - - - -
30/06:00pm 9.4 SSW 10 16 1024.1 - 0.0 - - - - - - -
30/05:30pm 9.5 SSW 10 15 1023.9 - 0.0 - - - - - - -
30/05:00pm 9.4 SW 10 15 1023.9 - 0.0 - - - - - - -
30/04:30pm 9.4 SSW 10 15 1023.9 - 0.0 - - - - - - -
30/04:00pm 9.5 SSW 11 15 1024.2 - 0.0 - - - - - - -
30/03:30pm 9.8 SSW 9 14 1024.3 - 0.0 - - - - - - -
30/03:00pm 10.1 SW 7 10 1024.4 - 0.0 - - - - - - -
30/02:30pm 9.8 SSW 9 13 1024.4 - 0.0 - - - - - - -
30/02:00pm 10.2 SSW 7 10 1024.5 - 0.0 - - - - - - -
30/01:30pm 10.0 SSW 8 13 1024.7 - 0.0 - - - - - - -
30/01:00pm 10.3 SSW 7 11 1025.1 - 0.0 - - - - - - -
30/12:30pm 10.4 SSW 6 9 1025.3 - 0.0 - - - - - - -
30/12:00pm 10.3 SW 6 10 1025.8 - 0.0 - - - - - - -
30/11:30am 10.7 SW 4 7 1025.9 - 0.0 - - - - - - -
30/11:00am 10.6 WSW 5 8 1026.1 - 0.0 - - - - - - -
30/10:30am 10.5 S 5 10 1026.3 - 0.0 - - - - - - -
30/10:00am 10.1 WSW 5 8 1026.4 - 0.0 - - - - - - -
30/09:30am 10.3 WSW 6 9 1026.4 - 0.0 - - - - - - -
30/09:00am 10.1 WSW 5 8 1026.5 - 0.2 - - - - - - -
30/08:30am 9.9 SW 8 14 1026.3 - 0.2 - - - - - - -
30/08:00am 9.9 SW 8 12 1026.4 - 0.2 - - - - - - -
30/07:30am 9.5 SW 9 13 1026.2 - 0.2 - - - - - - -
30/07:00am 9.8 SW 8 12 1025.9 - 0.2 - - - - - - -

Other Formats:

Comma delimited format used in spreadsheet applications
http://www.bom.gov.au/fwo/IDT60701/IDT60701.94842.axf

JavaScript Object Notation format (JSON) in row-major order
http://www.bom.gov.au/fwo/IDT60701/IDT60701.94842.json